Terminal Aerodrome Forecast
Issued by NWS

Home | Current Version | Previous Version | Graphics & Text | Print | Product List | Glossary On
Versions: 1 2 3 4 5 6 7 8 9 10 11 12 13
000
FTUS43 KABR 251729
TAFMBG
TAF
KMBG 251729Z 2518/2618 33011G16KT P6SM BKN040 OVC045
     FM260200 05005KT P6SM SCT250
     FM261300 19009KT P6SM OVC060
     FM261600 19011KT P6SM -SHRA OVC050=

USA.gov is the U.S. government's official web portal to all federal, state and local government web resources and services.